Princeville, HI

9:22 PM HST on August 24, 2016 (GMT -1000)
North Shore of Kauai | | Change Station

Elev 200 ft 22.23 °N, 159.48 °W | Updated 5 seconds ago

Clear
Clear
76.4 °F
Feels Like 77 °F
N
0.9
Wind Variable Wind from SE
Gusts 0.9 mph

Today
High -- | Low -- °F
--% Chance of Precip.
Yesterday
High -- | Low -- °F
Precip. -- in
Pressure 30.04 in
Visibility 10.0 miles
Clouds Clear
Heat Index 77 °F
Dew Point 71 °F
Humidity 84%
Rainfall 0.00 in
Snow Depth Not available.
6:18 AM 7:01 PM
Waning Gibbous, 48% visible
METAR PHLI 250653Z 29003KT 10SM CLR 27/23 A3005 RMK AO2 SLP173 T02670233
Pressure 30.04 in
Visibility 10.0 miles
Clouds Clear
Heat Index 77 °F
Dew Point 71 °F
Humidity 84%
Rainfall 0.00 in
Snow Depth Not available.
6:18 AM 7:01 PM
Waning Gibbous, 48% visible
METAR PHLI 250653Z 29003KT 10SM CLR 27/23 A3005 RMK AO2 SLP173 T02670233

10-Day Weather Forecast

Almanac

Astronomy

Aug. 24, 2016 Rise Set
Actual Time
Civil Twilight
Nautical Twilight
Astronomical Twilight
Moon
Length of Visible Light
Length of Day
Tomorrow will be .
, % of the Moon is Illuminated

Today's Extremes

State Highs State Lows

Community

WunderPhotos

Upload Photos

1,934,814 photos uploaded!

WunderBlog® & News

Nearby

Air Quality

  Air Quality AQ Index Pollutant
Not available.

Snow Depth

Station Depth Elevation

Earthquake Activity

City Distance Mag. Time & Date
Minimum magnitude displayed is 2.5.

Coastal Water Temperatures

Place Temperature

Stations

Nearby Weather Stations

Station Location Temp. Windchill Dew Point Humidity Wind Precip. Elev Updated Type
                   

Watches & Warnings

There are currently no watches in effect.